Tillabery, Niger
Current Conditions -  °F | °C
As of 1:00 AM on Tuesday 21 Oct 2014 (Local Time) from DRRN Reporting Station
Clear Clear  
Wind Chill: 84°   Ceiling: Unl
Heat Index: 84°   Visibility: 5mi
Dew Point: 59°   Wind: 1mph
Humidity: 42%   Direction: 250°WSW
Pressure: 29.88"   Gusts: NA
Location:  14.21°N, 1.45°E
Report Text: DRRN 210000Z 25001KT 8000 NSC 29/15 Q1012 NOSIG
Loading
Personal Weather Stations






























Interactive Weather Map
Tropical Storm Tracking
New forecast layout! Learn more

10-Day Weather Forecast

Advertisements
Track Severe Weather on mobile